createdAt,value
2022-12-24T00:00:02.637Z,8.26
2022-12-24T00:00:32.976Z,8.14
2022-12-24T00:01:06.093Z,8.14
2022-12-24T00:01:34.625Z,8.14
2022-12-24T00:01:52.539Z,8.04
2022-12-24T00:02:25.548Z,8.04
2022-12-24T00:02:42.621Z,8.04
2022-12-24T00:03:12.548Z,8.04
2022-12-24T00:03:35.056Z,8.04
2022-12-24T00:04:00.831Z,8.04
2022-12-24T00:04:34.081Z,8.04
2022-12-24T00:05:04.917Z,7.87
2022-12-24T00:05:35.551Z,7.87
2022-12-24T00:06:08.590Z,7.87
2022-12-24T00:06:34.729Z,7.87
2022-12-24T00:06:56.913Z,7.98
2022-12-24T00:07:28.772Z,7.98
2022-12-24T00:08:01.653Z,7.98
2022-12-24T00:08:33.054Z,8.09
2022-12-24T00:09:06.307Z,7.91
2022-12-24T00:09:33.718Z,7.91
2022-12-24T00:09:52.537Z,7.91
2022-12-24T00:10:24.815Z,8.09
2022-12-24T00:10:41.860Z,7.91
2022-12-24T00:11:13.495Z,7.91
2022-12-24T00:11:33.757Z,7.91
2022-12-24T00:12:00.627Z,7.91
2022-12-24T00:12:32.459Z,7.91
2022-12-24T00:13:06.358Z,7.91
2022-12-24T00:13:34.184Z,7.91
2022-12-24T00:13:52.559Z,7.91
2022-12-24T00:14:24.753Z,8.02
2022-12-24T00:14:41.545Z,8.02
2022-12-24T00:15:14.482Z,8.02
2022-12-24T00:15:34.157Z,8.02
2022-12-24T00:16:00.637Z,8.02
2022-12-24T00:16:32.505Z,8.02
2022-12-24T00:17:04.656Z,8.02
2022-12-24T00:17:33.693Z,7.84
2022-12-24T00:17:52.578Z,7.84
2022-12-24T00:18:26.332Z,7.84
2022-12-24T00:18:56.460Z,7.84
2022-12-24T00:19:29.628Z,7.84
2022-12-24T00:20:02.253Z,8.02
2022-12-24T00:20:34.044Z,8.02
2022-12-24T00:21:04.690Z,8.02
2022-12-24T00:21:35.944Z,8.02
2022-12-24T00:21:52.702Z,8.02
2022-12-24T00:22:24.928Z,8.02
2022-12-24T00:22:42.686Z,8.02
2022-12-24T00:23:12.796Z,8.02
2022-12-24T00:23:34.133Z,8.02
2022-12-24T00:24:00.797Z,8.02
2022-12-24T00:24:33.129Z,8.02
2022-12-24T00:25:06.166Z,8.02
2022-12-24T00:25:34.063Z,8.02
2022-12-24T00:25:53.172Z,8.02
2022-12-24T00:26:24.879Z,8.02
2022-12-24T00:26:41.755Z,8.02
2022-12-24T00:27:14.020Z,7.84
2022-12-24T00:27:33.905Z,7.84
2022-12-24T00:28:01.767Z,7.84
2022-12-24T00:28:32.520Z,7.95
2022-12-24T00:29:04.667Z,7.95
2022-12-24T00:29:33.836Z,7.95
2022-12-24T00:29:52.592Z,7.95
2022-12-24T00:30:26.020Z,8.00
2022-12-24T00:30:56.657Z,8.00
2022-12-24T00:31:30.251Z,8.00
2022-12-24T00:32:01.092Z,8.00
2022-12-24T00:32:38.867Z,8.00
2022-12-24T00:33:04.822Z,8.00
2022-12-24T00:33:34.071Z,8.00
2022-12-24T00:33:52.565Z,8.00
2022-12-24T00:34:25.039Z,8.00
2022-12-24T00:34:41.834Z,8.00
2022-12-24T00:35:13.023Z,8.00
2022-12-24T00:35:34.269Z,8.00
2022-12-24T00:36:01.939Z,8.00
2022-12-24T00:36:32.849Z,8.00
2022-12-24T00:37:05.788Z,8.00
2022-12-24T00:37:33.991Z,8.00
2022-12-24T00:37:53.047Z,8.00
2022-12-24T00:38:24.564Z,8.00
2022-12-24T00:38:41.662Z,8.00
2022-12-24T00:39:13.451Z,8.00
2022-12-24T00:39:33.709Z,8.00
2022-12-24T00:40:01.148Z,8.00
2022-12-24T00:40:32.685Z,8.00
2022-12-24T00:41:04.682Z,8.00
2022-12-24T00:41:33.846Z,8.00
2022-12-24T00:41:52.479Z,8.00
2022-12-24T00:42:25.580Z,8.00
2022-12-24T00:42:56.804Z,8.00
2022-12-24T00:43:29.348Z,8.00
2022-12-24T00:44:00.840Z,8.00
2022-12-24T00:44:33.670Z,8.00
2022-12-24T00:45:04.815Z,8.00
2022-12-24T00:45:34.748Z,8.00
2022-12-24T00:45:52.920Z,8.00
2022-12-24T00:46:24.872Z,8.00
2022-12-24T00:46:42.725Z,8.18
2022-12-24T00:47:12.675Z,8.13
2022-12-24T00:47:33.749Z,8.13
2022-12-24T00:48:00.763Z,8.13
2022-12-24T00:48:32.940Z,8.13
2022-12-24T00:49:05.548Z,8.13
2022-12-24T00:49:34.333Z,8.13
2022-12-24T00:49:52.466Z,8.13
2022-12-24T00:50:25.157Z,8.13
2022-12-24T00:50:41.972Z,8.13
2022-12-24T00:51:13.960Z,8.13
2022-12-24T00:51:34.569Z,8.13
2022-12-24T00:52:00.593Z,8.13
2022-12-24T00:52:32.704Z,8.13
2022-12-24T00:53:04.668Z,8.13
2022-12-24T00:53:34.167Z,8.13
2022-12-24T00:53:53.036Z,8.13
2022-12-24T00:54:25.455Z,8.13
2022-12-24T00:54:56.515Z,8.13
2022-12-24T00:55:30.004Z,8.13
2022-12-24T00:56:00.559Z,8.13
2022-12-24T00:56:33.374Z,8.02
2022-12-24T00:57:04.585Z,8.02
2022-12-24T00:57:34.801Z,8.02
2022-12-24T00:57:52.673Z,8.02
2022-12-24T00:58:24.615Z,8.02
2022-12-24T00:58:42.473Z,8.02
2022-12-24T00:59:12.556Z,8.02
2022-12-24T00:59:33.736Z,8.02
2022-12-24T01:00:00.762Z,8.02
2022-12-24T01:00:32.553Z,8.13
2022-12-24T01:01:05.755Z,8.13
2022-12-24T01:01:34.471Z,8.13
2022-12-24T01:01:52.863Z,8.13
2022-12-24T01:02:24.911Z,8.13
2022-12-24T01:02:41.950Z,8.13
2022-12-24T01:03:13.295Z,8.13
2022-12-24T01:03:34.623Z,8.13
2022-12-24T01:04:00.532Z,8.13
2022-12-24T01:04:32.862Z,8.13
2022-12-24T01:05:04.990Z,8.13
2022-12-24T01:05:34.346Z,8.13
2022-12-24T01:05:53.102Z,8.13
2022-12-24T01:06:25.398Z,8.13
2022-12-24T01:06:56.586Z,8.13
2022-12-24T01:07:29.930Z,7.95
2022-12-24T01:08:00.799Z,7.95
2022-12-24T01:08:33.512Z,7.95
2022-12-24T01:09:04.473Z,8.13
2022-12-24T01:09:35.126Z,8.13
2022-12-24T01:09:52.643Z,8.13
2022-12-24T01:10:24.995Z,8.13
2022-12-24T01:10:42.836Z,8.13
2022-12-24T01:11:13.050Z,8.02
2022-12-24T01:11:34.121Z,8.02
2022-12-24T01:12:00.810Z,8.02
2022-12-24T01:12:32.716Z,8.02
2022-12-24T01:13:05.573Z,8.02
2022-12-24T01:13:34.035Z,7.91
2022-12-24T01:13:52.854Z,7.91
2022-12-24T01:14:24.918Z,7.91
2022-12-24T01:14:41.852Z,7.91
2022-12-24T01:15:13.716Z,7.91
2022-12-24T01:15:49.550Z,7.91
2022-12-24T01:16:17.827Z,8.09
2022-12-24T01:16:49.028Z,7.91
2022-12-24T01:17:22.438Z,7.91
2022-12-24T01:17:39.772Z,7.91
2022-12-24T01:18:08.859Z,7.91
2022-12-24T01:18:33.939Z,7.91
2022-12-24T01:18:56.789Z,7.91
2022-12-24T01:19:29.714Z,7.91
2022-12-24T01:20:01.022Z,7.91
2022-12-24T01:20:33.826Z,8.09
2022-12-24T01:21:04.837Z,8.09
2022-12-24T01:21:35.406Z,8.09
2022-12-24T01:21:52.825Z,7.98
2022-12-24T01:22:24.822Z,7.98
2022-12-24T01:22:42.623Z,7.98
2022-12-24T01:23:12.961Z,7.98
2022-12-24T01:23:34.252Z,7.98
2022-12-24T01:24:00.942Z,7.98
2022-12-24T01:24:32.578Z,7.98
2022-12-24T01:25:05.895Z,7.98
2022-12-24T01:25:34.160Z,7.98
2022-12-24T01:25:52.676Z,7.98
2022-12-24T01:26:24.922Z,7.98
2022-12-24T01:26:41.543Z,7.98
2022-12-24T01:27:13.752Z,7.98
2022-12-24T01:27:34.129Z,7.98
2022-12-24T01:28:00.900Z,7.98
2022-12-24T01:28:32.615Z,7.98
2022-12-24T01:29:04.542Z,7.87
2022-12-24T01:29:34.636Z,7.87
2022-12-24T01:29:52.560Z,7.87
2022-12-24T01:30:26.383Z,7.87
2022-12-24T01:30:57.476Z,7.87
2022-12-24T01:31:30.012Z,7.87
2022-12-24T01:32:00.981Z,7.87
2022-12-24T01:32:33.968Z,7.87
2022-12-24T01:33:04.938Z,7.87
2022-12-24T01:33:35.465Z,7.87
2022-12-24T01:33:52.855Z,7.87
2022-12-24T01:34:24.868Z,7.87
2022-12-24T01:34:42.396Z,7.87
2022-12-24T01:35:12.848Z,7.87
2022-12-24T01:35:34.117Z,7.87
2022-12-24T01:36:01.020Z,7.87
2022-12-24T01:36:32.996Z,7.87
2022-12-24T01:37:05.771Z,7.87
2022-12-24T01:37:34.115Z,7.87
2022-12-24T01:37:52.496Z,7.87
2022-12-24T01:38:24.795Z,7.87
2022-12-24T01:38:41.568Z,7.87
2022-12-24T01:39:13.872Z,7.87
2022-12-24T01:39:33.820Z,7.87
2022-12-24T01:40:01.119Z,7.87
2022-12-24T01:40:32.968Z,7.87
2022-12-24T01:41:04.710Z,7.87
2022-12-24T01:41:33.904Z,7.87
2022-12-24T01:41:52.569Z,7.87
2022-12-24T01:42:26.006Z,7.87
2022-12-24T01:42:58.125Z,7.87
2022-12-24T01:43:29.723Z,7.87
2022-12-24T01:44:00.654Z,7.87
2022-12-24T01:44:36.656Z,7.87
2022-12-24T01:45:04.970Z,7.87
2022-12-24T01:45:35.054Z,7.87
2022-12-24T01:45:52.847Z,7.87
2022-12-24T01:46:25.040Z,7.82
2022-12-24T01:46:42.796Z,7.82
2022-12-24T01:47:12.570Z,7.82
2022-12-24T01:47:33.699Z,7.82
2022-12-24T01:48:00.550Z,7.82
2022-12-24T01:48:32.482Z,7.82
2022-12-24T01:49:05.920Z,7.82
2022-12-24T01:49:34.438Z,7.82
2022-12-24T01:49:52.947Z,7.82
2022-12-24T01:50:24.941Z,7.82
2022-12-24T01:50:41.827Z,7.82
2022-12-24T01:51:13.676Z,7.82
2022-12-24T01:51:34.281Z,7.82
2022-12-24T01:52:01.069Z,7.82
2022-12-24T01:52:32.834Z,7.82
2022-12-24T01:53:04.887Z,7.82
2022-12-24T01:53:33.909Z,7.82
2022-12-24T01:53:52.627Z,7.82
2022-12-24T01:54:25.593Z,7.82
2022-12-24T01:54:56.773Z,7.87
2022-12-24T01:55:30.110Z,7.87
2022-12-24T01:56:00.926Z,7.87
2022-12-24T01:56:33.959Z,7.87
2022-12-24T01:57:04.811Z,7.87
2022-12-24T01:57:35.126Z,7.87
2022-12-24T01:58:08.722Z,7.87
2022-12-24T01:58:33.945Z,7.87
2022-12-24T01:58:56.744Z,7.87
2022-12-24T01:59:28.548Z,7.87
2022-12-24T02:00:02.727Z,7.87
2022-12-24T02:00:32.538Z,7.98
2022-12-24T02:01:05.378Z,7.98
2022-12-24T02:01:34.093Z,7.98
2022-12-24T02:01:52.555Z,7.98
2022-12-24T02:02:24.615Z,7.98
2022-12-24T02:02:41.788Z,7.98
2022-12-24T02:03:13.341Z,7.98
2022-12-24T02:03:33.840Z,7.98
2022-12-24T02:04:00.446Z,7.98
2022-12-24T02:04:32.512Z,7.98
2022-12-24T02:05:04.898Z,7.98
2022-12-24T02:05:33.833Z,7.98
2022-12-24T02:05:52.614Z,7.98
2022-12-24T02:06:25.480Z,7.98
2022-12-24T02:06:57.617Z,7.98
2022-12-24T02:07:29.148Z,7.98
2022-12-24T02:08:00.485Z,7.98
2022-12-24T02:08:33.522Z,7.98
2022-12-24T02:09:04.539Z,7.98
2022-12-24T02:09:35.906Z,7.98
2022-12-24T02:09:52.244Z,7.98
2022-12-24T02:10:24.620Z,7.98
2022-12-24T02:10:42.610Z,7.98
2022-12-24T02:11:12.594Z,7.98
2022-12-24T02:11:33.687Z,7.98
2022-12-24T02:12:00.437Z,8.09
2022-12-24T02:12:32.541Z,8.09
2022-12-24T02:13:05.417Z,8.09
2022-12-24T02:13:33.818Z,8.09
2022-12-24T02:13:52.450Z,8.09
2022-12-24T02:14:25.514Z,8.09
2022-12-24T02:14:56.539Z,8.09
2022-12-24T02:15:28.794Z,8.09
2022-12-24T02:16:00.551Z,8.09
2022-12-24T02:16:34.654Z,8.09
2022-12-24T02:17:04.573Z,8.09
2022-12-24T02:17:33.833Z,8.09
2022-12-24T02:17:52.568Z,8.09
2022-12-24T02:18:25.534Z,8.09
2022-12-24T02:18:56.561Z,8.09
2022-12-24T02:19:29.358Z,8.26
2022-12-24T02:20:00.665Z,8.26
2022-12-24T02:20:33.383Z,8.26
2022-12-24T02:21:04.594Z,8.14
2022-12-24T02:21:34.735Z,8.14
2022-12-24T02:21:52.477Z,8.31
2022-12-24T02:22:24.470Z,8.31
2022-12-24T02:22:42.624Z,8.31
2022-12-24T02:23:12.577Z,8.31
2022-12-24T02:23:35.579Z,8.20
2022-12-24T02:24:00.403Z,8.37
2022-12-24T02:24:32.577Z,8.37
2022-12-24T02:25:06.600Z,8.37
2022-12-24T02:25:35.471Z,8.32
2022-12-24T02:26:09.344Z,8.32
2022-12-24T02:26:34.496Z,8.49
2022-12-24T02:26:56.481Z,8.49
2022-12-24T02:27:28.493Z,8.38
2022-12-24T02:28:00.517Z,8.38
2022-12-24T02:28:32.569Z,8.38
2022-12-24T02:29:04.509Z,8.38
2022-12-24T02:29:34.477Z,8.38
2022-12-24T02:29:52.459Z,8.43
2022-12-24T02:30:25.590Z,8.43
2022-12-24T02:30:56.986Z,8.43
2022-12-24T02:31:29.443Z,8.43
2022-12-24T02:32:00.494Z,8.43
2022-12-24T02:32:33.430Z,8.31
2022-12-24T02:33:04.549Z,8.31
2022-12-24T02:33:35.862Z,8.31
2022-12-24T02:33:52.538Z,8.48
2022-12-24T02:34:24.728Z,8.48
2022-12-24T02:34:46.086Z,8.48
2022-12-24T02:35:12.730Z,8.48
2022-12-24T02:35:34.660Z,8.48
2022-12-24T02:36:01.948Z,8.48
2022-12-24T02:36:32.820Z,8.37
2022-12-24T02:37:05.851Z,8.37
2022-12-24T02:37:34.363Z,8.37
2022-12-24T02:37:52.738Z,8.37
2022-12-24T02:38:24.628Z,8.37
2022-12-24T02:38:41.878Z,8.37
2022-12-24T02:39:13.277Z,8.37
2022-12-24T02:39:33.778Z,8.37
2022-12-24T02:40:01.056Z,8.37
2022-12-24T02:40:33.529Z,8.37
2022-12-24T02:41:04.569Z,8.37
2022-12-24T02:41:34.938Z,8.37
2022-12-24T02:41:52.470Z,8.54
2022-12-24T02:42:24.621Z,8.54
2022-12-24T02:42:42.587Z,8.54
2022-12-24T02:43:12.459Z,8.54
2022-12-24T02:43:33.781Z,8.54
2022-12-24T02:44:00.615Z,8.54
2022-12-24T02:44:32.560Z,8.54
2022-12-24T02:45:05.845Z,8.49
2022-12-24T02:45:34.410Z,8.49
2022-12-24T02:45:58.693Z,8.49
2022-12-24T02:46:24.599Z,8.49
2022-12-24T02:46:41.823Z,8.49
2022-12-24T02:47:13.510Z,8.49
2022-12-24T02:47:34.603Z,8.49
2022-12-24T02:48:00.671Z,8.49
2022-12-24T02:48:32.574Z,8.49
2022-12-24T02:49:04.547Z,8.49
2022-12-24T02:49:34.795Z,8.49
2022-12-24T02:50:26.075Z,8.49
2022-12-24T02:50:57.163Z,8.49
2022-12-24T02:51:29.426Z,8.32
2022-12-24T02:52:01.450Z,8.32
2022-12-24T02:52:33.427Z,8.32
2022-12-24T02:53:04.642Z,8.32
2022-12-24T02:53:35.408Z,8.32
2022-12-24T02:53:52.560Z,8.32
2022-12-24T02:54:24.611Z,8.32
2022-12-24T02:54:42.772Z,8.32
2022-12-24T02:55:13.310Z,8.32
2022-12-24T02:55:34.351Z,8.32
2022-12-24T02:56:00.529Z,8.32
2022-12-24T02:56:32.952Z,8.32
2022-12-24T02:57:09.338Z,8.49
2022-12-24T02:57:34.355Z,8.49
2022-12-24T02:57:52.713Z,8.49
2022-12-24T02:58:26.353Z,8.49
2022-12-24T02:58:57.257Z,8.49
2022-12-24T02:59:29.571Z,8.49
2022-12-24T03:00:00.796Z,8.49
2022-12-24T03:00:33.753Z,8.49
2022-12-24T03:01:04.726Z,8.38
2022-12-24T03:01:35.102Z,8.38
2022-12-24T03:01:52.652Z,8.38
2022-12-24T03:02:24.697Z,8.38
2022-12-24T03:02:42.587Z,8.38
2022-12-24T03:03:12.573Z,8.38
2022-12-24T03:03:33.817Z,8.38
2022-12-24T03:04:00.571Z,8.38
2022-12-24T03:04:32.609Z,8.38
2022-12-24T03:05:05.500Z,8.38
2022-12-24T03:05:34.575Z,8.38
2022-12-24T03:05:52.687Z,8.38
2022-12-24T03:06:24.835Z,8.27
2022-12-24T03:06:43.664Z,8.38
2022-12-24T03:07:13.794Z,8.38
2022-12-24T03:07:33.897Z,8.38
2022-12-24T03:08:01.209Z,8.38
2022-12-24T03:08:32.606Z,8.38
2022-12-24T03:09:04.630Z,8.38
2022-12-24T03:09:34.053Z,8.38
2022-12-24T03:09:52.568Z,8.27
2022-12-24T03:10:25.744Z,8.27
2022-12-24T03:10:56.589Z,8.27
2022-12-24T03:11:29.420Z,8.27
2022-12-24T03:12:00.579Z,8.27
2022-12-24T03:12:32.982Z,8.27
2022-12-24T03:13:05.915Z,8.27
2022-12-24T03:13:34.086Z,8.27
2022-12-24T03:13:52.691Z,8.27
2022-12-24T03:14:25.034Z,8.15
2022-12-24T03:14:42.029Z,8.15
2022-12-24T03:15:14.459Z,8.15
2022-12-24T03:15:34.055Z,8.15
2022-12-24T03:16:00.929Z,8.04
2022-12-24T03:16:33.628Z,8.04
2022-12-24T03:17:04.809Z,8.04
2022-12-24T03:17:34.195Z,8.04
2022-12-24T03:17:52.539Z,8.04
2022-12-24T03:18:25.314Z,8.04
2022-12-24T03:18:41.817Z,7.99
2022-12-24T03:19:12.580Z,7.99
2022-12-24T03:19:34.555Z,7.99
2022-12-24T03:20:00.783Z,7.99
2022-12-24T03:20:34.710Z,7.99
2022-12-24T03:21:04.575Z,7.89
2022-12-24T03:21:33.999Z,7.89
2022-12-24T03:21:52.584Z,7.89
2022-12-24T03:22:24.928Z,7.89
2022-12-24T03:22:41.856Z,7.89
2022-12-24T03:23:12.990Z,7.89
2022-12-24T03:23:34.511Z,7.89
2022-12-24T03:24:02.137Z,7.89
2022-12-24T03:24:34.041Z,7.78
2022-12-24T03:25:06.134Z,7.78
2022-12-24T03:25:34.352Z,7.78
2022-12-24T03:25:53.447Z,7.78
2022-12-24T03:26:24.914Z,7.78
2022-12-24T03:26:41.917Z,7.78
2022-12-24T03:27:14.098Z,7.78
2022-12-24T03:27:34.039Z,7.78
2022-12-24T03:28:00.901Z,7.78
2022-12-24T03:28:32.974Z,7.78
2022-12-24T03:29:05.233Z,7.66
2022-12-24T03:29:34.187Z,7.66
2022-12-24T03:29:52.562Z,7.66
2022-12-24T03:30:25.978Z,7.66
2022-12-24T03:30:57.078Z,7.66
2022-12-24T03:31:29.938Z,7.66
2022-12-24T03:32:01.036Z,7.66
2022-12-24T03:32:33.866Z,7.66
2022-12-24T03:33:04.896Z,7.66
2022-12-24T03:33:38.761Z,7.66
2022-12-24T03:34:08.626Z,7.66
2022-12-24T03:34:33.789Z,7.55
2022-12-24T03:34:56.522Z,7.55
2022-12-24T03:35:28.918Z,7.55
2022-12-24T03:36:02.129Z,7.55
2022-12-24T03:36:32.805Z,7.55
2022-12-24T03:37:05.627Z,7.55
2022-12-24T03:37:34.096Z,7.70
2022-12-24T03:37:52.619Z,7.70
2022-12-24T03:38:24.687Z,7.70
2022-12-24T03:38:56.925Z,7.70
2022-12-24T03:39:28.765Z,7.70
2022-12-24T03:40:00.799Z,7.70
2022-12-24T03:40:32.524Z,7.70
2022-12-24T03:41:04.536Z,7.70
2022-12-24T03:41:33.772Z,7.70
2022-12-24T03:41:52.666Z,7.70
2022-12-24T03:42:25.410Z,7.70
2022-12-24T03:42:56.580Z,7.70
2022-12-24T03:43:29.501Z,7.70
2022-12-24T03:44:00.711Z,7.70
2022-12-24T03:44:33.496Z,7.70
2022-12-24T03:45:04.778Z,7.70
2022-12-24T03:45:35.044Z,7.70
2022-12-24T03:45:52.768Z,7.70
2022-12-24T03:46:24.506Z,7.70
2022-12-24T03:46:42.516Z,7.70
2022-12-24T03:47:12.608Z,7.70
2022-12-24T03:47:34.153Z,7.70
2022-12-24T03:48:01.146Z,7.70
2022-12-24T03:48:33.028Z,7.70
2022-12-24T03:49:05.413Z,7.70
2022-12-24T03:49:33.771Z,7.70
2022-12-24T03:49:52.594Z,7.70
2022-12-24T03:50:25.091Z,7.70
2022-12-24T03:50:41.821Z,7.70
2022-12-24T03:51:13.559Z,7.70
2022-12-24T03:51:34.300Z,7.70
2022-12-24T03:52:00.721Z,7.70
2022-12-24T03:52:32.665Z,7.70
2022-12-24T03:53:04.784Z,7.70
2022-12-24T03:53:34.370Z,7.70
2022-12-24T03:54:08.857Z,7.70
2022-12-24T03:54:34.120Z,7.70
2022-12-24T03:54:56.785Z,7.70
2022-12-24T03:55:30.161Z,7.70
2022-12-24T03:56:00.956Z,7.70
2022-12-24T03:56:33.590Z,7.70
2022-12-24T03:57:04.811Z,7.70
2022-12-24T03:57:35.193Z,7.70
2022-12-24T03:57:52.843Z,7.70
2022-12-24T03:58:24.787Z,7.70
2022-12-24T03:58:42.612Z,7.70
2022-12-24T03:59:12.822Z,7.70
2022-12-24T03:59:34.594Z,7.70
2022-12-24T04:00:01.311Z,7.70
2022-12-24T04:00:33.017Z,7.70
2022-12-24T04:01:06.178Z,7.70
2022-12-24T04:01:34.085Z,7.70
2022-12-24T04:01:53.000Z,7.70
2022-12-24T04:02:24.931Z,7.70
2022-12-24T04:02:41.793Z,7.70
2022-12-24T04:03:14.636Z,7.70
2022-12-24T04:03:34.220Z,7.70
2022-12-24T04:04:01.052Z,7.70
2022-12-24T04:04:32.848Z,7.70
2022-12-24T04:05:05.011Z,7.70
2022-12-24T04:05:35.400Z,7.70
2022-12-24T04:05:52.531Z,7.81
2022-12-24T04:06:25.064Z,7.81
2022-12-24T04:06:42.772Z,7.81
2022-12-24T04:07:12.971Z,7.81
2022-12-24T04:07:34.157Z,7.81
2022-12-24T04:08:00.866Z,7.81
2022-12-24T04:08:32.652Z,7.81
2022-12-24T04:09:05.701Z,7.81
2022-12-24T04:09:34.287Z,7.81
2022-12-24T04:09:52.611Z,7.81
2022-12-24T04:10:24.602Z,7.81
2022-12-24T04:10:41.700Z,7.81
2022-12-24T04:11:15.040Z,7.81
2022-12-24T04:11:33.843Z,7.81
2022-12-24T04:12:00.504Z,7.81
2022-12-24T04:12:32.637Z,7.81
2022-12-24T04:13:05.935Z,7.93
2022-12-24T04:13:35.029Z,7.93
2022-12-24T04:13:52.429Z,7.93
2022-12-24T04:14:24.471Z,7.93
2022-12-24T04:14:41.726Z,7.93
2022-12-24T04:15:13.930Z,8.04
2022-12-24T04:15:34.031Z,8.04
2022-12-24T04:16:01.126Z,8.04
2022-12-24T04:16:32.551Z,8.04
2022-12-24T04:17:04.675Z,8.04
2022-12-24T04:17:33.760Z,8.04
2022-12-24T04:17:52.417Z,8.15
2022-12-24T04:18:25.347Z,8.15
2022-12-24T04:18:56.482Z,8.20
2022-12-24T04:19:29.504Z,8.20
2022-12-24T04:20:00.645Z,8.20
2022-12-24T04:20:33.580Z,8.20
2022-12-24T04:21:04.544Z,8.20
2022-12-24T04:21:35.218Z,8.20
2022-12-24T04:21:52.744Z,8.20
2022-12-24T04:22:25.040Z,8.20
2022-12-24T04:22:42.550Z,8.20
2022-12-24T04:23:12.964Z,8.20
2022-12-24T04:23:34.207Z,8.31
2022-12-24T04:24:00.845Z,8.15
2022-12-24T04:24:32.761Z,8.15
2022-12-24T04:25:06.015Z,8.15
2022-12-24T04:25:34.235Z,8.15
2022-12-24T04:25:52.868Z,8.15
2022-12-24T04:26:24.858Z,8.27
2022-12-24T04:26:41.851Z,8.27
2022-12-24T04:27:13.540Z,8.27
2022-12-24T04:27:34.067Z,8.27
2022-12-24T04:28:00.646Z,8.27
2022-12-24T04:28:32.751Z,8.27
2022-12-24T04:29:04.926Z,8.27
2022-12-24T04:29:34.065Z,8.27
2022-12-24T04:29:52.438Z,8.27
2022-12-24T04:30:25.914Z,8.38
2022-12-24T04:30:56.876Z,8.38
2022-12-24T04:31:30.100Z,8.38
2022-12-24T04:32:01.186Z,8.38
2022-12-24T04:32:43.680Z,8.38
2022-12-24T04:33:04.556Z,8.38
2022-12-24T04:33:34.199Z,8.38
2022-12-24T04:33:53.577Z,8.38
2022-12-24T04:34:24.555Z,8.38
2022-12-24T04:34:41.743Z,8.38
2022-12-24T04:35:12.731Z,8.38
2022-12-24T04:35:34.567Z,8.38
2022-12-24T04:36:01.283Z,8.38
2022-12-24T04:36:32.585Z,8.38
2022-12-24T04:37:05.432Z,8.38
2022-12-24T04:37:34.068Z,8.38
2022-12-24T04:37:52.648Z,8.38
2022-12-24T04:38:24.567Z,8.38
2022-12-24T04:38:41.685Z,8.38
2022-12-24T04:39:13.160Z,8.38
2022-12-24T04:39:33.770Z,8.38
2022-12-24T04:40:00.793Z,8.38
2022-12-24T04:40:32.619Z,8.38
2022-12-24T04:41:04.539Z,8.38
2022-12-24T04:41:38.308Z,8.38
2022-12-24T04:42:08.586Z,8.49
2022-12-24T04:42:33.685Z,8.49
2022-12-24T04:42:56.593Z,8.49
2022-12-24T04:43:29.570Z,8.49
2022-12-24T04:44:00.646Z,8.49
2022-12-24T04:44:33.370Z,8.49
2022-12-24T04:45:04.786Z,8.49
2022-12-24T04:45:39.004Z,8.49
2022-12-24T04:46:08.720Z,8.38
2022-12-24T04:46:33.738Z,8.38
2022-12-24T04:46:56.428Z,8.38
2022-12-24T04:47:28.531Z,8.38
2022-12-24T04:48:01.973Z,8.64
2022-12-24T04:48:32.523Z,8.49
2022-12-24T04:49:05.200Z,8.64
2022-12-24T04:49:34.359Z,8.49
2022-12-24T04:49:52.440Z,8.49
2022-12-24T04:50:24.695Z,8.49
2022-12-24T04:50:41.715Z,8.49
2022-12-24T04:51:13.271Z,8.64
2022-12-24T04:51:33.781Z,8.49
2022-12-24T04:52:00.528Z,8.64
2022-12-24T04:52:32.592Z,8.49
2022-12-24T04:53:04.490Z,8.49
2022-12-24T04:53:33.907Z,8.49
2022-12-24T04:53:52.489Z,8.49
2022-12-24T04:54:25.370Z,8.49
2022-12-24T04:54:41.843Z,8.49
2022-12-24T04:55:12.582Z,8.49
2022-12-24T04:55:33.764Z,8.49
2022-12-24T04:56:00.559Z,8.49
2022-12-24T04:56:33.485Z,8.49
2022-12-24T04:57:04.808Z,8.49
2022-12-24T04:57:53.083Z,8.49
2022-12-24T04:58:08.638Z,8.49
2022-12-24T04:58:34.289Z,8.49
2022-12-24T04:58:58.233Z,8.49
2022-12-24T04:59:28.477Z,8.49
2022-12-24T05:00:02.053Z,8.49
2022-12-24T05:00:32.576Z,8.49
2022-12-24T05:01:05.568Z,8.49
2022-12-24T05:01:34.111Z,8.49
2022-12-24T05:01:52.697Z,8.64
2022-12-24T05:02:25.009Z,8.64
2022-12-24T05:02:56.626Z,8.64
2022-12-24T05:03:28.701Z,8.64
2022-12-24T05:04:00.595Z,8.64
2022-12-24T05:04:32.610Z,8.64
2022-12-24T05:05:04.723Z,8.64
2022-12-24T05:05:34.043Z,8.64
2022-12-24T05:05:57.894Z,8.64
2022-12-24T05:06:25.381Z,8.64
2022-12-24T05:06:57.404Z,8.64
2022-12-24T05:07:29.857Z,8.64
2022-12-24T05:08:00.729Z,8.64
2022-12-24T05:08:33.906Z,8.64
2022-12-24T05:09:04.792Z,8.64
2022-12-24T05:09:34.280Z,8.64
2022-12-24T05:09:52.596Z,8.64
2022-12-24T05:10:24.591Z,8.64
2022-12-24T05:10:57.907Z,8.64
2022-12-24T05:11:37.842Z,8.64
2022-12-24T05:12:00.842Z,8.49
2022-12-24T05:12:32.588Z,8.49
2022-12-24T05:13:05.440Z,8.49
2022-12-24T05:13:40.664Z,8.49
2022-12-24T05:14:09.901Z,8.54
2022-12-24T05:14:34.187Z,8.54
2022-12-24T05:14:56.800Z,8.54
2022-12-24T05:15:28.888Z,8.54
2022-12-24T05:16:00.661Z,8.54
2022-12-24T05:16:32.724Z,8.54
2022-12-24T05:17:05.151Z,8.54
2022-12-24T05:17:34.594Z,8.54
2022-12-24T05:17:52.744Z,8.49
2022-12-24T05:18:25.460Z,8.49
2022-12-24T05:18:56.650Z,8.49
2022-12-24T05:19:29.704Z,8.49
2022-12-24T05:20:00.941Z,8.49
2022-12-24T05:20:33.530Z,8.49
2022-12-24T05:21:04.609Z,8.49
2022-12-24T05:21:35.422Z,8.49
2022-12-24T05:22:07.676Z,8.49
2022-12-24T05:22:24.368Z,8.49
2022-12-24T05:22:42.708Z,8.49
2022-12-24T05:23:12.661Z,8.49
2022-12-24T05:23:34.201Z,8.49
2022-12-24T05:24:00.841Z,8.54
2022-12-24T05:24:32.606Z,8.54
2022-12-24T05:25:05.587Z,8.54
2022-12-24T05:25:33.789Z,8.54
2022-12-24T05:25:52.681Z,8.54
2022-12-24T05:26:24.413Z,8.54
2022-12-24T05:26:56.586Z,8.54
2022-12-24T05:27:29.214Z,8.54
2022-12-24T05:28:00.852Z,8.54
2022-12-24T05:28:33.781Z,8.54
2022-12-24T05:29:04.553Z,8.54
2022-12-24T05:29:34.766Z,8.54
2022-12-24T05:29:52.448Z,8.54
2022-12-24T05:30:25.159Z,8.54
2022-12-24T05:30:44.896Z,8.54
2022-12-24T05:31:17.085Z,8.54
2022-12-24T05:31:34.260Z,8.48
2022-12-24T05:32:01.391Z,8.48
2022-12-24T05:32:32.702Z,8.48
2022-12-24T05:33:05.417Z,8.48
2022-12-24T05:33:33.869Z,8.48
2022-12-24T05:33:52.988Z,8.48
2022-12-24T05:34:24.466Z,8.48
2022-12-24T05:34:41.681Z,8.48
2022-12-24T05:35:14.518Z,8.48
2022-12-24T05:35:33.817Z,8.48
2022-12-24T05:36:00.436Z,8.48
2022-12-24T05:36:32.544Z,8.48
2022-12-24T05:37:04.520Z,8.48
2022-12-24T05:37:34.544Z,8.48
2022-12-24T05:37:52.812Z,8.48
2022-12-24T05:38:25.745Z,8.48
2022-12-24T05:38:56.508Z,8.48
2022-12-24T05:39:29.258Z,8.48
2022-12-24T05:40:00.560Z,8.48
2022-12-24T05:41:06.734Z,8.48
2022-12-24T05:42:12.929Z,8.48
2022-12-24T05:43:19.094Z,8.48
2022-12-24T05:44:25.258Z,8.48
2022-12-24T05:45:31.671Z,8.48
2022-12-24T05:45:35.324Z,8.48
2022-12-24T05:45:52.607Z,8.48
2022-12-24T05:46:24.576Z,8.48
2022-12-24T05:46:42.403Z,8.48
2022-12-24T05:47:28.545Z,8.60
2022-12-24T05:48:01.656Z,8.60
2022-12-24T05:48:32.555Z,8.60
2022-12-24T05:49:05.897Z,8.60
2022-12-24T05:49:33.882Z,8.60
2022-12-24T05:49:52.394Z,8.60
2022-12-24T05:50:24.660Z,8.48
2022-12-24T05:50:41.594Z,8.48
2022-12-24T05:51:13.239Z,8.48
2022-12-24T05:51:33.819Z,8.48
2022-12-24T05:52:00.616Z,8.48
2022-12-24T05:52:32.531Z,8.48
2022-12-24T05:53:04.529Z,8.48
2022-12-24T05:53:34.260Z,8.48
2022-12-24T05:53:52.436Z,8.48
2022-12-24T05:54:25.429Z,8.48
2022-12-24T05:54:56.563Z,8.31
2022-12-24T05:55:30.333Z,8.31
2022-12-24T05:56:00.504Z,8.31
2022-12-24T05:56:33.472Z,8.43
2022-12-24T05:57:04.465Z,8.43
2022-12-24T05:57:36.365Z,8.43
2022-12-24T05:58:08.698Z,8.27
2022-12-24T05:58:33.685Z,8.27
2022-12-24T05:58:57.892Z,8.27
2022-12-24T05:59:29.502Z,8.27
2022-12-24T06:00:02.620Z,8.38
2022-12-24T06:01:08.837Z,8.38
2022-12-24T06:02:15.124Z,8.38
2022-12-24T06:03:21.335Z,8.38
2022-12-24T06:04:29.318Z,8.38
2022-12-24T06:05:35.985Z,8.22
2022-12-24T06:05:52.541Z,8.22
2022-12-24T06:06:25.345Z,8.22
2022-12-24T06:06:56.459Z,8.22
2022-12-24T06:07:29.459Z,8.22
2022-12-24T06:08:00.573Z,8.22
2022-12-24T06:08:34.366Z,8.22
2022-12-24T06:09:04.446Z,8.22
2022-12-24T06:09:33.798Z,8.22
2022-12-24T06:09:52.501Z,8.22
2022-12-24T06:10:24.654Z,8.32
2022-12-24T06:10:41.634Z,8.32
2022-12-24T06:11:13.327Z,8.32
2022-12-24T06:11:33.897Z,8.32
2022-12-24T06:12:00.548Z,8.32
2022-12-24T06:12:32.662Z,8.32
2022-12-24T06:13:04.580Z,8.32
2022-12-24T06:13:34.337Z,8.32
2022-12-24T06:13:52.899Z,8.32
2022-12-24T06:14:25.131Z,8.32
2022-12-24T06:14:41.734Z,8.32
2022-12-24T06:15:14.445Z,8.32
2022-12-24T06:15:34.058Z,8.32
2022-12-24T06:16:00.620Z,8.22
2022-12-24T06:16:33.301Z,8.22
2022-12-24T06:17:05.479Z,8.22
2022-12-24T06:17:34.771Z,8.22
2022-12-24T06:17:53.463Z,8.22
2022-12-24T06:18:24.540Z,8.22
2022-12-24T06:18:42.390Z,8.22